Time;durP1;ratioP1;P1;durP2;ratioP2;P2;SDS_P1;SDS_P2;PMS_P1;PMS_P2;Temp;Humidity;BMP_temperature;BMP_pressure;BME280_temperature;BME280_humidity;BME280_pressure;Samples;Min_cycle;Max_cycle;Signal;HPM_P1;HPM_P2
2023/10/05 00:02:08;;;;;;;3.57;2.47;;;23.40;62.00;;;;;;5099026;28;21042;-70
2023/10/05 00:04:41;;;;;;;2.10;1.80;;;23.50;61.90;;;;;;5104647;28;20510;-70
2023/10/05 00:07:17;;;;;;;2.57;2.03;;;23.50;62.00;;;;;;5108658;28;20520;-70
2023/10/05 00:09:46;;;;;;;5.50;2.27;;;23.50;62.10;;;;;;5098036;28;20448;-70
2023/10/05 00:12:19;;;;;;;2.13;1.93;;;23.50;62.00;;;;;;5100466;28;20713;-70
2023/10/05 00:14:55;;;;;;;1.87;1.77;;;23.50;62.10;;;;;;5091937;28;20464;-70
2023/10/05 00:17:23;;;;;;;3.30;2.27;;;23.50;62.10;;;;;;5106270;28;20443;-70
2023/10/05 00:19:53;;;;;;;2.27;2.07;;;23.50;61.80;;;;;;5099474;28;20501;-69
2023/10/05 00:22:21;;;;;;;2.30;2.03;;;23.50;61.90;;;;;;5103503;28;20513;-69
2023/10/05 00:24:50;;;;;;;2.43;1.90;;;23.50;61.80;;;;;;5118752;27;20511;-70
2023/10/05 00:27:19;;;;;;;2.23;1.87;;;23.50;61.70;;;;;;5098688;28;20465;-69
2023/10/05 00:29:54;;;;;;;2.20;2.00;;;23.50;61.90;;;;;;5076415;28;20449;-70
2023/10/05 00:32:26;;;;;;;2.83;1.70;;;23.50;61.50;;;;;;5093979;28;20490;-69
2023/10/05 00:35:15;;;;;;;2.70;1.97;;;23.50;61.60;;;;;;5103451;28;20447;-69
2023/10/05 00:37:45;;;;;;;2.70;1.97;;;23.50;61.50;;;;;;5101983;28;20456;-69
2023/10/05 00:40:26;;;;;;;2.53;2.33;;;23.50;61.40;;;;;;5093301;28;20449;-70
2023/10/05 00:42:55;;;;;;;3.30;2.10;;;23.50;61.40;;;;;;5100273;27;20460;-69
2023/10/05 00:45:30;;;;;;;2.33;1.50;;;23.40;61.50;;;;;;5101137;28;20449;-69
2023/10/05 00:48:13;;;;;;;2.53;1.83;;;23.40;61.50;;;;;;5096889;28;20997;-70
2023/10/05 00:50:46;;;;;;;3.03;1.90;;;23.40;61.40;;;;;;5101095;28;20532;-69
2023/10/05 00:53:16;;;;;;;1.93;1.83;;;23.40;61.30;;;;;;5105556;27;21307;-70
2023/10/05 00:55:51;;;;;;;1.97;1.60;;;23.40;61.30;;;;;;5100826;28;20762;-69
2023/10/05 00:58:21;;;;;;;3.00;2.40;;;23.40;61.40;;;;;;5104958;28;20452;-70
2023/10/05 01:00:51;;;;;;;1.60;1.50;;;23.40;61.30;;;;;;5098194;28;20468;-69
2023/10/05 01:03:33;;;;;;;1.60;1.33;;;23.40;61.30;;;;;;5103953;27;20484;-69
2023/10/05 01:06:12;;;;;;;2.13;1.93;;;23.40;61.40;;;;;;5092445;28;20475;-69
2023/10/05 01:08:49;;;;;;;2.17;1.93;;;23.40;61.50;;;;;;5100236;28;20473;-69
2023/10/05 01:11:26;;;;;;;2.00;1.80;;;23.40;61.40;;;;;;5104685;28;20807;-69
2023/10/05 01:14:00;;;;;;;1.83;1.67;;;23.40;61.40;;;;;;5084387;28;20471;-69
2023/10/05 01:16:32;;;;;;;2.10;1.70;;;23.50;61.30;;;;;;5086460;28;20783;-69
2023/10/05 01:19:02;;;;;;;1.97;1.63;;;23.40;61.40;;;;;;5097375;28;20833;-69
2023/10/05 01:21:34;;;;;;;3.07;1.60;;;23.50;61.40;;;;;;5098876;28;21161;-69
2023/10/05 01:24:04;;;;;;;1.97;1.87;;;23.50;61.50;;;;;;5097698;28;20472;-69
2023/10/05 01:26:34;;;;;;;1.90;1.80;;;23.50;61.30;;;;;;5106691;27;20481;-69
2023/10/05 01:29:03;;;;;;;1.87;1.77;;;23.50;61.20;;;;;;5100529;27;20483;-69
2023/10/05 01:31:32;;;;;;;1.73;1.40;;;23.40;61.20;;;;;;5100641;28;20560;-69
2023/10/05 01:34:02;;;;;;;1.83;1.73;;;23.40;61.10;;;;;;5100741;28;20453;-70
2023/10/05 01:36:31;;;;;;;2.23;2.13;;;23.40;61.20;;;;;;5104127;28;20455;-69
2023/10/05 01:39:09;;;;;;;2.27;1.80;;;23.40;61.30;;;;;;5108280;28;20494;-69
2023/10/05 01:41:39;;;;;;;3.60;2.10;;;23.40;61.30;;;;;;5111021;28;20459;-69
2023/10/05 01:44:08;;;;;;;2.10;1.87;;;23.40;61.10;;;;;;5109787;28;20456;-70
2023/10/05 01:46:38;;;;;;;2.70;1.87;;;23.40;61.60;;;;;;5089732;27;21053;-70
2023/10/05 01:49:08;;;;;;;2.23;2.03;;;23.40;61.50;;;;;;5113304;27;20550;-69
2023/10/05 01:51:36;;;;;;;3.03;1.80;;;23.40;61.20;;;;;;5106850;28;20693;-70
2023/10/05 01:54:11;;;;;;;1.57;1.47;;;23.40;61.30;;;;;;5106967;28;20464;-70
2023/10/05 01:56:44;;;;;;;1.70;1.60;;;23.40;61.40;;;;;;5109448;27;20444;-69
2023/10/05 01:59:13;;;;;;;1.80;1.70;;;23.40;61.30;;;;;;5098123;28;20451;-70
2023/10/05 02:01:42;;;;;;;3.10;1.90;;;23.40;61.10;;;;;;5080518;28;20491;-69
2023/10/05 02:04:11;;;;;;;2.23;1.80;;;23.40;61.20;;;;;;5104534;28;20453;-69
2023/10/05 02:06:40;;;;;;;2.30;2.00;;;23.40;61.50;;;;;;5088531;28;21061;-69
2023/10/05 02:09:10;;;;;;;1.40;1.30;;;23.40;61.10;;;;;;5094173;28;20492;-69
2023/10/05 02:11:40;;;;;;;1.97;1.80;;;23.40;61.10;;;;;;5105756;28;20460;-70
2023/10/05 02:14:13;;;;;;;2.23;1.67;;;23.40;61.10;;;;;;5090661;27;20871;-69
2023/10/05 02:16:42;;;;;;;3.33;1.93;;;23.40;61.10;;;;;;5087660;28;21018;-69
2023/10/05 02:19:10;;;;;;;1.63;1.53;;;23.40;61.00;;;;;;5095751;28;20442;-70
2023/10/05 02:21:39;;;;;;;2.17;1.50;;;23.40;61.10;;;;;;5091248;28;21222;-69
2023/10/05 02:24:16;;;;;;;2.37;1.70;;;23.40;61.30;;;;;;5104432;28;20451;-69
2023/10/05 02:27:09;;;;;;;1.90;1.80;;;23.40;61.30;;;;;;5088908;28;20456;-69
2023/10/05 02:29:42;;;;;;;1.63;1.53;;;23.40;61.40;;;;;;5098570;28;20461;-69
2023/10/05 02:32:14;;;;;;;2.33;1.80;;;23.40;61.10;;;;;;5082615;28;20549;-69
2023/10/05 02:34:44;;;;;;;1.70;1.60;;;23.40;60.80;;;;;;5092980;28;20894;-70
2023/10/05 02:37:19;;;;;;;2.33;1.67;;;23.40;60.90;;;;;;5103333;28;20994;-71
2023/10/05 02:39:49;;;;;;;1.50;1.40;;;23.40;61.00;;;;;;5093635;28;20604;-70
2023/10/05 02:42:21;;;;;;;4.97;2.20;;;23.40;61.00;;;;;;5098867;28;20449;-69
2023/10/05 02:44:54;;;;;;;3.03;2.00;;;23.30;61.10;;;;;;5106498;28;20551;-69
2023/10/05 02:47:23;;;;;;;1.73;1.63;;;23.40;61.00;;;;;;5084522;28;20456;-70
2023/10/05 02:49:52;;;;;;;2.47;1.60;;;23.40;61.00;;;;;;5087002;28;20906;-69
2023/10/05 02:52:20;;;;;;;1.93;1.70;;;23.40;61.00;;;;;;5090618;28;20452;-69
2023/10/05 02:54:49;;;;;;;1.47;1.37;;;23.30;60.90;;;;;;5106073;27;20875;-70
2023/10/05 02:57:20;;;;;;;2.70;1.93;;;23.30;60.90;;;;;;5093957;28;20457;-70
2023/10/05 02:59:50;;;;;;;1.67;1.57;;;23.30;61.00;;;;;;5086416;28;20536;-70
2023/10/05 03:02:20;;;;;;;1.60;1.30;;;23.30;61.00;;;;;;5112147;27;20456;-70
2023/10/05 03:04:48;;;;;;;2.90;1.97;;;23.30;61.40;;;;;;5103656;27;20491;-69
2023/10/05 03:07:25;;;;;;;1.93;1.77;;;23.40;60.90;;;;;;5093809;28;20455;-69
2023/10/05 03:09:59;;;;;;;1.47;1.37;;;23.40;60.90;;;;;;5093013;28;20556;-70
2023/10/05 03:12:32;;;;;;;1.70;1.50;;;23.30;60.90;;;;;;5082428;28;20887;-69
2023/10/05 03:15:06;;;;;;;1.60;1.50;;;23.30;60.90;;;;;;5092327;28;20464;-69
2023/10/05 03:17:39;;;;;;;1.93;1.80;;;23.30;61.10;;;;;;5085451;28;20458;-69
2023/10/05 03:20:15;;;;;;;2.00;1.80;;;23.30;60.90;;;;;;5090708;28;20666;-69
2023/10/05 03:22:46;;;;;;;3.63;1.70;;;23.30;60.80;;;;;;5095180;28;20457;-69
2023/10/05 03:25:16;;;;;;;1.77;1.67;;;23.30;60.80;;;;;;5103311;28;20789;-69
2023/10/05 03:27:45;;;;;;;2.10;1.73;;;23.30;60.70;;;;;;5106032;28;20508;-69
2023/10/05 03:30:14;;;;;;;1.73;1.63;;;23.30;60.60;;;;;;5093371;28;20537;-69
2023/10/05 03:32:48;;;;;;;1.73;1.63;;;23.30;60.60;;;;;;5086804;28;20535;-70
2023/10/05 03:35:22;;;;;;;3.10;1.77;;;23.30;60.70;;;;;;5086498;28;20450;-70
2023/10/05 03:37:51;;;;;;;2.07;1.97;;;23.30;60.50;;;;;;5104280;28;20453;-69
2023/10/05 03:40:25;;;;;;;1.87;1.67;;;23.30;60.70;;;;;;5105090;28;20446;-69
2023/10/05 03:42:59;;;;;;;2.53;1.97;;;23.30;60.90;;;;;;5079010;28;20536;-69
2023/10/05 03:45:34;;;;;;;2.90;1.63;;;23.30;60.80;;;;;;5090254;28;20464;-70
2023/10/05 03:48:04;;;;;;;1.70;1.43;;;23.30;60.90;;;;;;5105323;28;20451;-69
2023/10/05 03:50:32;;;;;;;2.50;1.77;;;23.30;61.00;;;;;;5109161;28;20474;-69
2023/10/05 03:53:05;;;;;;;1.60;1.50;;;23.30;60.50;;;;;;5088879;28;20475;-69
2023/10/05 03:55:34;;;;;;;1.63;1.30;;;23.30;60.80;;;;;;5106378;28;20484;-70
2023/10/05 03:58:03;;;;;;;2.67;1.70;;;23.30;60.60;;;;;;5093781;28;20543;-70
2023/10/05 04:00:35;;;;;;;4.00;1.40;;;23.30;60.80;;;;;;5096785;28;20535;-69
2023/10/05 04:03:06;;;;;;;2.33;1.70;;;23.30;61.10;;;;;;5078985;28;20459;-69
2023/10/05 04:05:39;;;;;;;1.80;1.70;;;23.30;60.90;;;;;;5099765;28;20455;-69
2023/10/05 04:08:12;;;;;;;2.00;1.90;;;23.30;60.90;;;;;;5101321;28;20460;-69
2023/10/05 04:10:49;;;;;;;1.50;1.40;;;23.30;60.70;;;;;;5100640;28;20480;-69
2023/10/05 04:13:20;;;;;;;2.97;2.10;;;23.30;60.70;;;;;;5105790;28;20471;-70
2023/10/05 04:15:50;;;;;;;2.17;1.67;;;23.30;60.70;;;;;;5099822;27;20947;-69
2023/10/05 04:18:21;;;;;;;2.03;1.80;;;23.30;60.70;;;;;;5098989;28;20457;-69
2023/10/05 04:20:50;;;;;;;3.30;1.60;;;23.30;60.90;;;;;;5095181;28;21201;-69
2023/10/05 04:23:25;;;;;;;2.70;1.67;;;23.30;60.80;;;;;;5098351;28;20460;-70
2023/10/05 04:25:56;;;;;;;1.23;1.13;;;23.30;60.80;;;;;;5097457;28;20803;-69
2023/10/05 04:28:32;;;;;;;1.90;1.80;;;23.30;61.10;;;;;;5107423;28;21361;-69
2023/10/05 04:31:02;;;;;;;1.37;1.27;;;23.30;61.00;;;;;;5100705;28;20491;-70
2023/10/05 04:33:32;;;;;;;2.70;1.80;;;23.30;60.90;;;;;;5103450;27;20451;-69
2023/10/05 04:36:03;;;;;;;2.03;1.30;;;23.30;60.80;;;;;;5085687;28;20456;-70
2023/10/05 04:38:31;;;;;;;2.97;1.50;;;23.30;60.90;;;;;;5104043;28;20493;-70
2023/10/05 04:41:00;;;;;;;1.47;1.37;;;23.30;61.00;;;;;;5104313;27;20451;-71
2023/10/05 04:43:28;;;;;;;4.43;2.10;;;23.30;60.80;;;;;;5102080;28;20463;-70
2023/10/05 04:45:57;;;;;;;1.70;1.43;;;23.30;60.70;;;;;;5103169;28;21038;-70
2023/10/05 04:48:26;;;;;;;1.77;1.67;;;23.30;60.60;;;;;;5098424;28;20457;-70
2023/10/05 04:51:00;;;;;;;4.27;1.40;;;23.30;60.60;;;;;;5099788;27;20527;-69
2023/10/05 04:53:30;;;;;;;1.63;1.50;;;23.30;60.70;;;;;;5096167;28;20449;-70
2023/10/05 04:56:12;;;;;;;3.20;1.73;;;23.30;60.70;;;;;;5097525;28;20455;-70
2023/10/05 04:59:18;;;;;;;2.10;1.90;;;23.30;60.70;;;;;;5100881;27;20449;-69
2023/10/05 05:01:56;;;;;;;2.00;1.70;;;23.30;60.70;;;;;;5097570;28;20936;-70
2023/10/05 05:04:41;;;;;;;2.83;1.50;;;23.30;60.90;;;;;;5080779;28;20472;-70
2023/10/05 05:07:11;;;;;;;2.30;1.50;;;23.30;60.70;;;;;;5098422;28;20577;-70
2023/10/05 05:09:41;;;;;;;3.13;2.60;;;23.30;60.80;;;;;;5103414;28;20460;-69
2023/10/05 05:12:16;;;;;;;2.67;1.40;;;23.30;60.60;;;;;;5098159;28;20541;-70
2023/10/05 05:14:46;;;;;;;1.60;1.50;;;23.30;60.80;;;;;;5099979;27;20522;-69
2023/10/05 05:17:15;;;;;;;3.73;1.97;;;23.30;60.70;;;;;;5102092;28;20449;-69
2023/10/05 05:19:44;;;;;;;5.20;2.10;;;23.30;60.80;;;;;;5101036;27;20853;-69
2023/10/05 05:22:18;;;;;;;4.93;2.13;;;23.30;61.00;;;;;;5100280;28;20522;-69
2023/10/05 05:24:47;;;;;;;2.50;1.53;;;23.30;61.00;;;;;;5100310;28;20532;-69
2023/10/05 05:27:21;;;;;;;3.17;2.87;;;23.30;61.40;;;;;;5096561;28;20621;-69
2023/10/05 05:29:51;;;;;;;2.63;1.73;;;23.30;61.30;;;;;;5095752;28;20871;-69
2023/10/05 05:32:22;;;;;;;2.27;2.07;;;23.30;61.30;;;;;;5093811;28;20465;-69
2023/10/05 05:34:51;;;;;;;2.27;1.70;;;23.30;61.10;;;;;;5098315;28;20932;-69
2023/10/05 05:37:28;;;;;;;6.17;2.17;;;23.30;61.00;;;;;;5098237;28;20544;-69
2023/10/05 05:40:01;;;;;;;2.33;1.67;;;23.30;61.10;;;;;;5097116;28;20453;-69
2023/10/05 05:42:30;;;;;;;2.87;1.90;;;23.30;61.40;;;;;;5099767;28;20532;-69
2023/10/05 05:44:59;;;;;;;2.07;1.73;;;23.30;61.00;;;;;;5100018;28;20459;-69
2023/10/05 05:47:33;;;;;;;3.73;2.33;;;23.30;60.90;;;;;;5096329;28;20452;-69
2023/10/05 05:50:01;;;;;;;3.03;2.47;;;23.30;60.90;;;;;;5099880;28;20470;-69
2023/10/05 05:52:33;;;;;;;5.00;2.70;;;23.30;61.00;;;;;;5098009;28;20513;-69
2023/10/05 05:55:10;;;;;;;6.20;2.37;;;23.30;61.10;;;;;;5104148;28;20491;-69
2023/10/05 05:57:38;;;;;;;4.03;2.40;;;23.30;61.20;;;;;;5096582;28;20457;-69
2023/10/05 06:00:12;;;;;;;5.27;2.27;;;23.30;61.10;;;;;;5101049;28;20456;-69
2023/10/05 06:02:41;;;;;;;2.50;1.97;;;23.30;61.20;;;;;;5097909;28;20459;-69
2023/10/05 06:05:10;;;;;;;2.80;2.43;;;23.30;61.10;;;;;;5098428;28;21024;-69
2023/10/05 06:07:42;;;;;;;2.47;1.80;;;23.30;61.40;;;;;;5100033;28;20460;-69
2023/10/05 06:10:13;;;;;;;3.00;2.10;;;23.30;61.40;;;;;;5096021;28;20456;-69
2023/10/05 06:12:48;;;;;;;3.10;2.17;;;23.30;61.30;;;;;;5098804;28;20458;-69
2023/10/05 06:15:16;;;;;;;3.57;1.90;;;23.30;61.50;;;;;;5084367;28;20859;-69
2023/10/05 06:17:44;;;;;;;3.03;1.80;;;23.30;61.20;;;;;;5104285;27;20536;-69
2023/10/05 06:20:14;;;;;;;3.23;2.03;;;23.30;61.00;;;;;;5101682;28;20468;-69
2023/10/05 06:22:47;;;;;;;3.33;2.27;;;23.30;61.20;;;;;;5101757;27;20471;-69
2023/10/05 06:25:16;;;;;;;2.10;1.93;;;23.30;61.10;;;;;;5080668;28;20459;-69
2023/10/05 06:27:48;;;;;;;3.63;2.20;;;23.30;61.10;;;;;;5101472;28;20456;-68
2023/10/05 06:30:17;;;;;;;4.27;1.87;;;23.30;61.20;;;;;;5107691;27;20506;-68
2023/10/05 06:32:45;;;;;;;2.87;2.37;;;23.30;61.10;;;;;;5105476;28;20475;-70
2023/10/05 06:35:14;;;;;;;2.73;2.53;;;23.30;61.10;;;;;;5111755;28;20452;-68
2023/10/05 06:37:44;;;;;;;2.27;1.60;;;23.30;61.20;;;;;;5103669;28;20935;-80
2023/10/05 06:40:13;;;;;;;2.73;1.90;;;23.40;61.00;;;;;;5098581;27;20513;-80
2023/10/05 06:42:43;;;;;;;2.10;1.80;;;23.40;61.60;;;;;;5091203;27;21026;-80
2023/10/05 06:45:14;;;;;;;1.80;1.70;;;23.40;61.90;;;;;;5104711;28;20463;-80
2023/10/05 06:47:43;;;;;;;4.30;2.70;;;23.40;61.90;;;;;;5101053;28;20449;-80
2023/10/05 06:50:12;;;;;;;2.60;2.40;;;23.40;61.80;;;;;;5106735;28;20619;-80
2023/10/05 06:52:43;;;;;;;4.13;2.60;;;23.40;61.80;;;;;;5108635;28;20471;-79
2023/10/05 06:55:14;;;;;;;4.17;2.57;;;23.50;61.70;;;;;;5104256;28;20468;-79
2023/10/05 06:57:43;;;;;;;6.97;2.87;;;23.50;61.80;;;;;;5104341;28;20449;-78
2023/10/05 07:00:16;;;;;;;3.30;2.60;;;23.50;61.70;;;;;;5104321;28;20463;-78
2023/10/05 07:02:45;;;;;;;3.20;2.53;;;23.50;61.70;;;;;;5102492;28;20544;-78
2023/10/05 07:05:14;;;;;;;4.87;2.60;;;23.50;61.70;;;;;;5110198;28;20798;-78
2023/10/05 07:07:43;;;;;;;4.53;2.13;;;23.50;61.80;;;;;;5104608;28;20453;-79
2023/10/05 07:10:16;;;;;;;3.23;2.40;;;23.50;61.80;;;;;;5105134;28;20460;-78
2023/10/05 07:12:46;;;;;;;3.20;2.50;;;23.50;61.80;;;;;;5078211;28;20465;-79
2023/10/05 07:15:17;;;;;;;5.00;3.10;;;23.60;61.70;;;;;;5104686;28;20450;-81
2023/10/05 07:17:47;;;;;;;3.13;2.20;;;23.60;61.70;;;;;;5105920;27;20463;-79
2023/10/05 07:20:16;;;;;;;2.20;2.00;;;23.60;61.60;;;;;;5100152;28;20469;-79
2023/10/05 07:22:46;;;;;;;3.13;2.20;;;23.60;61.60;;;;;;5108247;28;20459;-80
2023/10/05 07:25:17;;;;;;;2.80;2.47;;;23.60;61.60;;;;;;5106102;28;20455;-79
2023/10/05 07:27:47;;;;;;;3.80;3.00;;;23.60;61.60;;;;;;5101031;27;20946;-80
2023/10/05 07:30:16;;;;;;;2.10;2.00;;;23.60;61.70;;;;;;5100231;28;21039;-79
2023/10/05 07:32:45;;;;;;;6.17;2.47;;;23.60;61.80;;;;;;5102573;27;21058;-79
2023/10/05 07:35:22;;;;;;;3.03;2.47;;;23.60;61.70;;;;;;5111482;27;20441;-79
2023/10/05 07:37:50;;;;;;;5.80;2.70;;;23.70;61.80;;;;;;5100124;27;20481;-79
2023/10/05 07:40:20;;;;;;;2.10;1.77;;;23.70;61.60;;;;;;5090188;28;20448;-79
2023/10/05 07:42:48;;;;;;;3.07;2.20;;;23.70;61.50;;;;;;5103017;27;20457;-79
2023/10/05 07:45:16;;;;;;;3.87;2.70;;;23.70;61.40;;;;;;5095585;28;20450;-80
2023/10/05 07:47:46;;;;;;;3.00;2.70;;;23.70;61.50;;;;;;5103380;28;20466;-78
2023/10/05 07:50:15;;;;;;;2.97;1.83;;;23.70;61.60;;;;;;5099344;28;20461;-77
2023/10/05 07:52:45;;;;;;;3.20;2.30;;;23.70;61.60;;;;;;5108294;28;20823;-78
2023/10/05 07:55:13;;;;;;;3.27;2.63;;;23.70;61.50;;;;;;5100701;28;20509;-78
2023/10/05 07:57:43;;;;;;;3.03;2.63;;;23.70;61.70;;;;;;5100104;28;21012;-78
2023/10/05 08:00:13;;;;;;;2.97;2.63;;;23.70;61.70;;;;;;5104381;28;20456;-78
2023/10/05 08:02:41;;;;;;;4.30;2.90;;;23.70;61.60;;;;;;5105445;28;20442;-68
2023/10/05 08:05:11;;;;;;;4.10;3.30;;;23.70;61.90;;;;;;5109329;28;20228;-69
2023/10/05 08:07:41;;;;;;;5.00;3.00;;;23.80;61.70;;;;;;5100974;28;20453;-69
2023/10/05 08:10:15;;;;;;;3.30;2.37;;;23.80;61.40;;;;;;5107229;28;20452;-69
2023/10/05 08:12:46;;;;;;;5.00;3.07;;;23.80;61.50;;;;;;5107205;28;20500;-68
2023/10/05 08:15:18;;;;;;;3.23;2.50;;;23.90;61.40;;;;;;5103649;28;20450;-68
2023/10/05 08:17:48;;;;;;;2.80;2.60;;;23.90;61.30;;;;;;5100419;27;20452;-69
2023/10/05 08:20:17;;;;;;;3.60;2.50;;;23.90;61.40;;;;;;5103551;28;20974;-68
2023/10/05 08:22:50;;;;;;;4.73;3.10;;;23.90;61.30;;;;;;5105147;28;20460;-69
2023/10/05 08:25:19;;;;;;;4.50;4.20;;;24.00;61.30;;;;;;5101618;28;20449;-69
2023/10/05 08:27:51;;;;;;;3.53;2.50;;;24.00;61.10;;;;;;5100391;28;20540;-69
2023/10/05 08:30:24;;;;;;;3.00;2.70;;;24.00;61.00;;;;;;5103203;28;20493;-69
2023/10/05 08:32:56;;;;;;;3.63;2.83;;;24.00;61.10;;;;;;5106290;28;20473;-68
2023/10/05 08:35:40;;;;;;;3.70;2.80;;;24.10;60.80;;;;;;5096909;28;21257;-69
2023/10/05 08:38:15;;;;;;;2.93;2.63;;;24.10;61.00;;;;;;5095297;28;20457;-68
2023/10/05 08:40:45;;;;;;;3.97;3.07;;;24.10;61.00;;;;;;5105306;28;20934;-69
2023/10/05 08:43:16;;;;;;;3.30;2.80;;;24.10;60.90;;;;;;5102981;28;20452;-68
2023/10/05 08:45:50;;;;;;;2.37;2.17;;;24.10;61.10;;;;;;5101466;28;20458;-68
2023/10/05 08:48:22;;;;;;;3.97;3.03;;;24.10;60.90;;;;;;5097030;28;20450;-68
2023/10/05 08:50:56;;;;;;;4.73;3.07;;;24.20;61.10;;;;;;5099379;28;20450;-69
2023/10/05 08:53:25;;;;;;;4.47;3.00;;;24.20;61.10;;;;;;5106925;28;20946;-69
2023/10/05 08:55:54;;;;;;;4.30;2.90;;;24.20;61.00;;;;;;5092320;28;20454;-68
2023/10/05 08:58:23;;;;;;;2.70;2.40;;;24.20;61.00;;;;;;5102913;28;20831;-68
2023/10/05 09:00:52;;;;;;;4.50;2.67;;;24.20;61.10;;;;;;5101168;28;20505;-68
2023/10/05 09:03:29;;;;;;;2.30;2.10;;;24.20;61.10;;;;;;5100557;28;21083;-69
2023/10/05 09:06:13;;;;;;;5.50;2.73;;;24.20;61.00;;;;;;5104988;28;20894;-69
2023/10/05 09:08:51;;;;;;;2.90;2.60;;;24.20;61.10;;;;;;5102136;28;20474;-69
2023/10/05 09:11:31;;;;;;;4.33;2.30;;;24.20;61.10;;;;;;5099596;28;20852;-69
2023/10/05 09:14:20;;;;;;;3.50;2.63;;;24.30;61.10;;;;;;5101159;28;20480;-69
2023/10/05 09:16:55;;;;;;;4.03;2.73;;;24.30;61.00;;;;;;5106293;28;20488;-69
2023/10/05 09:19:29;;;;;;;2.47;2.27;;;24.30;61.00;;;;;;5090327;28;20810;-68
2023/10/05 09:22:10;;;;;;;3.00;2.20;;;24.30;61.10;;;;;;5096746;28;20927;-68
2023/10/05 09:24:43;;;;;;;2.70;2.33;;;24.30;61.10;;;;;;5096314;28;20451;-68
2023/10/05 09:27:14;;;;;;;2.50;2.30;;;24.30;61.10;;;;;;5106188;28;20456;-69
2023/10/05 09:29:44;;;;;;;2.60;2.40;;;24.30;61.00;;;;;;5102027;28;21012;-69
2023/10/05 09:32:25;;;;;;;4.07;2.73;;;24.30;61.10;;;;;;5097684;28;20499;-69
2023/10/05 09:34:56;;;;;;;2.07;1.97;;;24.30;61.20;;;;;;5103063;28;20496;-68
2023/10/05 09:37:28;;;;;;;3.67;2.80;;;24.30;61.10;;;;;;5103815;28;20919;-70
2023/10/05 09:40:00;;;;;;;3.33;2.27;;;24.30;61.10;;;;;;5102415;28;20455;-69
2023/10/05 09:42:33;;;;;;;2.00;1.90;;;24.40;61.10;;;;;;5103793;28;21030;-72
2023/10/05 09:45:09;;;;;;;3.60;1.90;;;24.40;60.90;;;;;;5094400;28;20942;-72
2023/10/05 09:47:40;;;;;;;5.80;2.93;;;24.40;61.10;;;;;;5100639;28;20461;-73
2023/10/05 09:50:12;;;;;;;2.40;2.03;;;24.40;61.10;;;;;;5101804;27;21015;-73
2023/10/05 09:52:45;;;;;;;3.13;1.90;;;24.50;61.00;;;;;;5108954;28;20887;-72
2023/10/05 09:55:17;;;;;;;2.00;1.90;;;24.50;60.90;;;;;;5108697;27;20969;-72
2023/10/05 09:57:51;;;;;;;3.23;2.03;;;24.50;60.80;;;;;;5107593;28;20444;-73
2023/10/05 10:00:47;;;;;;;2.97;2.70;;;24.50;60.70;;;;;;5110044;28;20453;-73
2023/10/05 10:03:17;;;;;;;2.63;1.90;;;24.50;60.70;;;;;;5106743;28;20457;-73
2023/10/05 10:05:49;;;;;;;2.20;1.90;;;24.60;60.70;;;;;;5094955;28;20444;-72
2023/10/05 10:08:21;;;;;;;2.97;2.47;;;24.50;60.70;;;;;;5115198;28;20429;-72
2023/10/05 10:11:01;;;;;;;2.30;2.10;;;24.50;60.70;;;;;;5111590;28;20466;-72
2023/10/05 10:13:37;;;;;;;2.47;1.90;;;24.50;60.80;;;;;;5095157;28;20459;-72
2023/10/05 10:16:21;;;;;;;2.30;1.70;;;24.50;60.70;;;;;;5093148;28;20571;-72
2023/10/05 10:18:53;;;;;;;2.67;2.07;;;24.60;60.70;;;;;;5094439;28;20423;-72
2023/10/05 10:21:25;;;;;;;2.93;2.23;;;24.60;60.70;;;;;;5096672;28;20454;-72
2023/10/05 10:24:03;;;;;;;2.07;1.87;;;24.60;60.70;;;;;;5103750;27;20451;-73
2023/10/05 10:26:32;;;;;;;2.53;2.00;;;24.60;60.70;;;;;;5084059;28;20501;-72
2023/10/05 10:29:05;;;;;;;1.97;1.87;;;24.70;60.70;;;;;;5110267;27;20485;-72
2023/10/05 10:31:47;;;;;;;4.47;2.50;;;24.70;60.60;;;;;;5103297;28;20492;-73
2023/10/05 10:34:42;;;;;;;2.00;1.73;;;24.70;60.50;;;;;;5100331;27;20468;-73
2023/10/05 10:37:38;;;;;;;2.50;1.80;;;24.80;60.40;;;;;;5102553;27;20454;-73
2023/10/05 10:40:25;;;;;;;3.57;2.10;;;24.90;60.20;;;;;;5100124;28;20536;-73
2023/10/05 10:43:06;;;;;;;2.77;2.17;;;25.00;60.10;;;;;;5104497;27;20680;-73
2023/10/05 10:45:41;;;;;;;2.67;2.10;;;25.10;59.80;;;;;;5106217;27;20449;-73
2023/10/05 10:48:20;;;;;;;4.10;2.27;;;25.20;59.60;;;;;;5100542;27;20455;-72
2023/10/05 10:50:52;;;;;;;3.20;2.77;;;25.20;59.50;;;;;;5104693;28;20532;-73
2023/10/05 10:53:25;;;;;;;3.63;2.57;;;25.20;59.50;;;;;;5105209;28;20462;-73
2023/10/05 10:56:04;;;;;;;5.93;4.03;;;25.30;59.50;;;;;;5082971;28;20476;-73
2023/10/05 10:58:36;;;;;;;2.60;2.13;;;25.30;59.30;;;;;;5087210;28;20524;-73
2023/10/05 11:01:13;;;;;;;2.20;2.00;;;25.40;59.20;;;;;;5101633;27;20485;-73
2023/10/05 11:03:45;;;;;;;3.10;2.87;;;25.40;59.30;;;;;;5106535;28;20533;-74
2023/10/05 11:06:15;;;;;;;2.93;2.10;;;25.40;59.20;;;;;;5106765;27;20463;-73
2023/10/05 11:08:50;;;;;;;3.33;2.90;;;25.30;59.40;;;;;;5107108;27;21010;-73
2023/10/05 11:11:19;;;;;;;2.53;2.30;;;25.30;59.40;;;;;;5099592;28;20459;-73
2023/10/05 11:13:54;;;;;;;3.30;2.40;;;25.30;59.60;;;;;;5101462;28;20555;-68
2023/10/05 11:16:34;;;;;;;3.50;3.20;;;25.30;59.60;;;;;;5101941;28;20626;-68
2023/10/05 11:19:12;;;;;;;2.70;2.00;;;25.30;59.60;;;;;;5097368;28;20511;-68
2023/10/05 11:21:46;;;;;;;3.92;2.42;;;25.40;59.70;;;;;;5100061;28;20447;-70
2023/10/05 11:24:18;;;;;;;4.57;2.57;;;25.40;59.80;;;;;;5100970;27;20252;-70
2023/10/05 11:27:05;;;;;;;2.67;2.47;;;25.40;59.80;;;;;;5101593;28;20534;-71
2023/10/05 11:29:45;;;;;;;5.30;3.10;;;25.50;59.90;;;;;;5101772;28;20634;-70
2023/10/05 11:32:25;;;;;;;2.60;2.40;;;25.50;59.80;;;;;;5102029;28;21410;-71
2023/10/05 11:35:15;;;;;;;3.87;2.80;;;25.60;59.70;;;;;;5099030;28;21021;-71
2023/10/05 11:37:58;;;;;;;3.70;2.90;;;25.70;59.70;;;;;;5087865;28;20449;-71
2023/10/05 11:40:31;;;;;;;3.40;2.67;;;25.70;59.60;;;;;;5103943;28;20455;-71
2023/10/05 11:43:04;;;;;;;3.60;2.30;;;25.70;59.60;;;;;;5105165;28;20973;-71
2023/10/05 11:45:34;;;;;;;6.83;2.67;;;25.70;59.80;;;;;;5103690;28;20866;-72
2023/10/05 11:48:11;;;;;;;2.30;2.10;;;25.70;60.00;;;;;;5081607;28;20573;-70
2023/10/05 11:50:51;;;;;;;4.27;2.10;;;25.60;60.10;;;;;;5101959;28;20459;-69
2023/10/05 11:53:24;;;;;;;2.40;2.17;;;25.60;60.40;;;;;;5105162;28;20451;-69
2023/10/05 11:55:55;;;;;;;8.83;2.70;;;25.60;60.40;;;;;;5100285;28;21057;-69
2023/10/05 11:58:25;;;;;;;3.63;2.30;;;25.60;60.40;;;;;;5108178;28;20439;-70
2023/10/05 12:00:54;;;;;;;2.80;2.13;;;25.60;60.50;;;;;;5101998;28;21081;-70
2023/10/05 12:03:26;;;;;;;3.30;2.30;;;25.70;60.50;;;;;;5104891;28;20452;-70
2023/10/05 12:06:00;;;;;;;3.73;2.80;;;25.60;60.60;;;;;;5105554;28;20543;-69
2023/10/05 12:08:29;;;;;;;2.90;2.07;;;25.60;60.80;;;;;;5105321;28;20447;-69
2023/10/05 12:10:59;;;;;;;2.27;2.07;;;25.60;60.80;;;;;;5101947;28;20463;-69
2023/10/05 12:13:29;;;;;;;2.00;1.90;;;25.60;60.90;;;;;;5104328;28;20553;-69
2023/10/05 12:15:58;;;;;;;2.63;2.00;;;25.50;61.00;;;;;;5100482;28;21056;-69
2023/10/05 12:18:26;;;;;;;2.57;2.37;;;25.50;61.10;;;;;;5089426;27;20873;-68
2023/10/05 12:20:58;;;;;;;2.53;2.33;;;25.50;61.10;;;;;;5103390;28;20493;-68
2023/10/05 12:23:28;;;;;;;2.80;1.93;;;25.50;61.10;;;;;;5104152;28;20486;-76
2023/10/05 12:25:57;;;;;;;5.17;1.87;;;25.40;61.10;;;;;;5102972;28;21893;-82
2023/10/05 12:28:26;;;;;;;2.77;1.90;;;25.40;61.00;;;;;;5100015;27;20470;-82
2023/10/05 12:30:56;;;;;;;4.13;2.80;;;25.30;61.10;;;;;;5099811;28;20539;-82
2023/10/05 12:33:24;;;;;;;2.27;2.07;;;25.30;61.20;;;;;;5100367;28;20474;-82
2023/10/05 12:35:53;;;;;;;2.37;1.60;;;25.20;61.30;;;;;;5098454;28;20487;-83
2023/10/05 12:38:25;;;;;;;3.23;1.80;;;25.10;61.40;;;;;;5100913;28;20495;-84
2023/10/05 12:40:55;;;;;;;3.43;2.47;;;25.10;61.50;;;;;;5099912;27;20502;-83
2023/10/05 12:43:26;;;;;;;3.63;2.17;;;25.10;61.60;;;;;;5100266;28;20458;-82
2023/10/05 12:45:56;;;;;;;3.00;1.70;;;25.00;61.70;;;;;;5101291;28;20456;-82
2023/10/05 12:48:26;;;;;;;3.20;2.20;;;25.00;61.80;;;;;;5101488;28;20946;-81
2023/10/05 12:50:55;;;;;;;3.20;2.50;;;25.00;61.90;;;;;;5097698;28;20895;-82
2023/10/05 12:53:25;;;;;;;3.33;2.47;;;24.90;61.80;;;;;;5099914;28;20458;-81
2023/10/05 12:55:56;;;;;;;3.13;2.07;;;24.90;61.90;;;;;;5101232;28;20473;-80
2023/10/05 12:58:25;;;;;;;6.10;2.10;;;24.90;61.90;;;;;;5100084;28;20466;-83
2023/10/05 13:00:54;;;;;;;4.47;2.30;;;24.90;62.30;;;;;;5099991;28;20498;-69
2023/10/05 13:03:27;;;;;;;4.60;2.00;;;24.90;62.10;;;;;;5102096;28;20454;-69
2023/10/05 13:06:00;;;;;;;9.87;2.30;;;24.90;62.20;;;;;;5094899;28;20452;-69
2023/10/05 13:08:31;;;;;;;2.70;2.27;;;25.00;62.30;;;;;;5100605;28;20504;-69
2023/10/05 13:11:00;;;;;;;2.90;2.10;;;25.00;62.30;;;;;;5101978;28;20448;-67
2023/10/05 13:13:31;;;;;;;3.33;3.00;;;25.00;62.30;;;;;;5099671;28;20450;-68
2023/10/05 13:16:01;;;;;;;2.67;1.93;;;25.00;62.30;;;;;;5100399;28;20487;-68